Austin, Pennsylvania
Current Conditions -  °F | °C
As of 8:53 PM on Thursday 18 Dec 2014 (Local Time) from KBFD Reporting Station
Haze Haze  
Wind Chill: 15°   Ceiling: 800
Heat Index: 26°   Visibility: 4mi
Dew Point: 23°   Wind: 13mph
Humidity: 88%   Direction: 290°WNW
Pressure: 30"   Gusts: NA
Location:  41.63°N, 78.09°W
Report Text: KBFD 190153Z AUTO 29011KT 4SM BR OVC008 M03/M05 A3000 RMK AO2 FZRAB13E33 SLP184 P0000 I1002 T10331050
Loading
Personal Weather Stations






























Interactive Weather Map New forecast layout! Learn more

10-Day Weather Forecast

Advertisements
Track Severe Weather on mobile